Terminal Aerodrome Forecast
Issued by NWS

Home | Current Version | Previous Version | Text Only | Print | Product List | Glossary On
Versions: 1 2 3 4 5 6 7 8 9 10 11 12 13 14 15 16
000
FTUS41 KALY 251722
TAFPSF
TAF
KPSF 251722Z 2518/2618 20005KT P6SM FEW090 SCT130
     FM251900 20010G17KT P6SM SCT090 BKN130
     FM260000 22008KT P6SM SCT080 BKN120
     FM261200 25010KT P6SM SCT060 BKN150=

USA.gov is the U.S. government's official web portal to all federal, state and local government web resources and services.